Time;durP1;ratioP1;P1;durP2;ratioP2;P2;SDS_P1;SDS_P2;PMS_P1;PMS_P2;Temp;Humidity;BMP_temperature;BMP_pressure;BME280_temperature;BME280_humidity;BME280_pressure;Samples;Min_cycle;Max_cycle;Signal;HPM_P1;HPM_P2
2022/05/22 00:01:07;;;;;;;0.80;0.00;;;;;;;14.09;53.21;99088.45;1652589;84;20115;-67
2022/05/22 00:03:34;;;;;;;1.45;0.10;;;;;;;14.02;53.27;99086.75;1632740;86;21042;-67
2022/05/22 00:06:01;;;;;;;9.05;0.62;;;;;;;14.01;53.60;99084.30;1666891;84;21043;-67
2022/05/22 00:08:28;;;;;;;9.88;0.75;;;;;;;14.00;53.61;99084.84;1640321;86;21104;-67
2022/05/22 00:10:56;;;;;;;2.12;0.17;;;;;;;14.00;53.58;99078.67;1649327;86;21139;-67
2022/05/22 00:13:25;;;;;;;1.90;0.00;;;;;;;13.98;53.88;99082.12;1640068;85;21520;-66
2022/05/22 00:18:36;;;;;;;2.95;0.10;;;;;;;13.94;53.95;99091.17;1633867;86;21085;-67
2022/05/22 00:21:03;;;;;;;2.80;0.10;;;;;;;13.86;54.41;99078.68;1631787;86;21065;-67
2022/05/22 00:23:31;;;;;;;3.45;0.00;;;;;;;13.81;54.41;99086.92;1617234;86;21068;-67
2022/05/22 00:25:57;;;;;;;0.95;0.13;;;;;;;13.76;54.71;99090.83;1609506;87;21088;-67
2022/05/22 00:28:25;;;;;;;4.08;0.03;;;;;;;13.72;54.69;99088.35;1639132;86;21612;-67
2022/05/22 00:30:52;;;;;;;3.80;0.10;;;;;;;13.68;54.75;99077.84;1635261;86;21105;-67
2022/05/22 00:33:21;;;;;;;;;;;;;;;13.61;54.86;99086.00;1635220;85;21616;-66
2022/05/22 00:35:47;;;;;;;0.88;0.10;;;;;;;13.59;54.93;99076.59;1616846;86;20162;-67
2022/05/22 00:38:15;;;;;;;5.58;0.00;;;;;;;13.48;55.12;99096.19;1604363;88;21096;-67
2022/05/22 00:40:43;;;;;;;0.75;0.15;;;;;;;13.46;55.04;99094.27;1629132;86;21055;-66
2022/05/22 00:43:39;;;;;;;5.10;0.10;;;;;;;13.41;54.95;99093.13;1643358;86;21108;-68
2022/05/22 00:46:11;;;;;;;0.68;0.10;;;;;;;13.41;54.85;99086.94;1632832;85;20985;-66
2022/05/22 00:48:43;;;;;;;4.92;0.10;;;;;;;13.36;54.75;99063.58;1645135;85;21033;-66
2022/05/22 00:51:14;;;;;;;1.37;0.00;;;;;;;13.33;54.41;99063.23;1652143;85;21640;-66
2022/05/22 00:53:53;;;;;;;0.10;0.10;;;;;;;13.30;54.24;99060.99;1656030;85;21074;-66
2022/05/22 00:56:26;;;;;;;0.50;0.00;;;;;;;13.26;54.35;99079.41;1652199;84;21571;-67
2022/05/22 00:58:56;;;;;;;2.33;0.10;;;;;;;13.24;54.37;99075.62;1655357;85;21021;-67
2022/05/22 01:01:22;;;;;;;2.35;0.10;;;;;;;13.20;54.64;99073.14;1650598;84;21357;-67
2022/05/22 01:03:49;;;;;;;;;;;;;;;13.18;54.65;99070.39;1636387;86;21543;-67
2022/05/22 01:06:24;;;;;;;5.43;0.10;;;;;;;13.15;54.95;99068.21;1651482;85;20126;-67
2022/05/22 01:08:52;;;;;;;2.25;0.10;;;;;;;13.05;54.95;99058.92;1618702;85;21037;-67
2022/05/22 01:11:31;;;;;;;2.20;0.10;;;;;;;13.03;54.94;99070.38;1635630;85;21072;-66
2022/05/22 01:14:03;;;;;;;0.10;0.08;;;;;;;13.02;55.18;99059.38;1616035;86;21127;-67
2022/05/22 01:16:33;;;;;;;1.22;0.10;;;;;;;13.00;55.27;99052.66;1623399;86;21092;-66
2022/05/22 01:19:00;;;;;;;1.52;0.10;;;;;;;12.98;55.28;99055.55;1633974;86;20999;-66
2022/05/22 01:21:32;;;;;;;5.20;0.10;;;;;;;12.96;55.52;99050.97;1611719;86;21146;-66
2022/05/22 01:23:59;;;;;;;1.65;0.00;;;;;;;12.94;55.50;99049.06;1610430;86;21023;-67
2022/05/22 01:26:29;;;;;;;2.27;0.08;;;;;;;12.94;55.74;99042.88;1630401;86;21002;-67
2022/05/22 01:29:07;;;;;;;1.27;0.47;;;;;;;12.92;55.96;99045.81;1626523;86;21047;-66
2022/05/22 01:31:33;;;;;;;1.95;0.00;;;;;;;12.87;56.12;99047.03;1620323;86;21475;-66
2022/05/22 01:34:02;;;;;;;2.47;0.30;;;;;;;12.85;56.24;99037.90;1614781;86;21819;-66
2022/05/22 01:36:28;;;;;;;3.17;0.10;;;;;;;12.85;56.36;99034.42;1626972;86;20985;-67
2022/05/22 01:38:57;;;;;;;1.75;0.10;;;;;;;12.82;56.60;99024.19;1620762;86;21088;-67
2022/05/22 01:41:26;;;;;;;1.27;0.10;;;;;;;12.78;56.40;99027.04;1631560;86;21048;-67
2022/05/22 01:43:53;;;;;;;3.58;0.15;;;;;;;12.78;56.44;99028.38;1628419;86;20997;-67
2022/05/22 01:46:21;;;;;;;0.98;0.00;;;;;;;12.77;56.56;99029.41;1598491;88;21698;-67
2022/05/22 01:48:56;;;;;;;0.50;0.08;;;;;;;12.76;56.79;99023.26;1612444;88;21049;-67
2022/05/22 01:51:26;;;;;;;4.12;0.00;;;;;;;12.73;56.98;99032.27;1593920;88;21094;-67
2022/05/22 01:53:53;;;;;;;2.08;0.10;;;;;;;12.65;57.44;99016.06;1586396;88;21074;-67
2022/05/22 01:56:21;;;;;;;0.75;0.05;;;;;;;12.60;57.36;99026.14;1596703;88;21014;-67
2022/05/22 01:58:47;;;;;;;0.40;0.08;;;;;;;12.56;57.63;99014.27;1562997;88;21073;-67
2022/05/22 02:01:16;;;;;;;2.55;0.10;;;;;;;12.55;57.61;99019.33;1589431;88;21097;-67
2022/05/22 02:03:44;;;;;;;1.17;0.10;;;;;;;12.56;57.68;99020.94;1578791;90;21055;-67
2022/05/22 02:06:12;;;;;;;0.20;0.10;;;;;;;12.56;57.76;99017.47;1600359;88;21564;-67
2022/05/22 02:08:39;;;;;;;1.22;0.13;;;;;;;12.52;58.34;99010.44;1600104;88;21020;-67
2022/05/22 02:11:07;;;;;;;3.20;0.28;;;;;;;12.48;58.55;99001.27;1595992;88;21079;-66
2022/05/22 02:13:40;;;;;;;1.50;0.10;;;;;;;12.44;58.65;99013.47;1586204;88;21030;-66
2022/05/22 02:16:08;;;;;;;1.62;0.10;;;;;;;12.42;58.55;99006.21;1586473;88;21044;-67
2022/05/22 02:18:35;;;;;;;1.85;0.10;;;;;;;12.44;58.81;99004.12;1593585;88;21079;-66
2022/05/22 02:21:03;;;;;;;;;;;;;;;12.43;58.78;99001.14;1595483;88;21082;-68
2022/05/22 02:23:33;;;;;;;0.72;0.20;;;;;;;12.44;58.91;98998.23;1609320;87;20125;-67
2022/05/22 02:26:00;;;;;;;0.85;0.10;;;;;;;12.42;59.09;98992.84;1607035;88;21033;-66
2022/05/22 02:28:30;;;;;;;1.30;0.10;;;;;;;12.43;59.33;98995.80;1616903;88;21088;-68
2022/05/22 02:31:01;;;;;;;1.00;0.10;;;;;;;12.42;59.24;98984.83;1608613;88;21033;-66
2022/05/22 02:33:29;;;;;;;0.45;0.10;;;;;;;12.44;59.31;98990.22;1609795;85;21116;-67
2022/05/22 02:35:57;;;;;;;0.95;0.10;;;;;;;12.48;59.26;98983.89;1615739;88;21041;-66
2022/05/22 02:38:25;;;;;;;0.93;0.10;;;;;;;12.49;59.47;98982.86;1608946;88;21064;-67
2022/05/22 02:40:53;;;;;;;2.67;0.10;;;;;;;12.48;59.58;98983.89;1603395;88;21406;-67
2022/05/22 02:43:21;;;;;;;2.27;0.10;;;;;;;12.45;59.68;98978.50;1603468;88;21485;-67
2022/05/22 02:45:49;;;;;;;1.27;0.10;;;;;;;12.46;59.86;98980.64;1608372;85;21116;-67
2022/05/22 02:48:17;;;;;;;0.53;0.10;;;;;;;12.50;59.72;98970.30;1604239;88;21034;-67
2022/05/22 02:50:55;;;;;;;0.10;0.10;;;;;;;12.60;59.70;98967.83;1616701;87;21120;-66
2022/05/22 02:53:21;;;;;;;0.50;0.10;;;;;;;12.98;59.21;98963.81;1588551;87;21113;-67
2022/05/22 02:56:13;;;;;;;0.40;0.10;;;;;;;13.55;57.70;98966.49;1604428;85;21616;-68
2022/05/22 02:58:48;;;;;;;0.30;0.10;;;;;;;14.24;55.62;98957.42;1588000;88;21042;-67
2022/05/22 03:01:14;;;;;;;0.90;0.10;;;;;;;14.82;54.09;98953.09;1608728;87;21054;-68
2022/05/22 03:03:41;;;;;;;0.57;0.10;;;;;;;15.06;52.87;98950.97;1622345;87;21062;-67
2022/05/22 03:08:53;;;;;;;2.00;0.10;;;;;;;14.99;52.38;98947.95;1621729;87;21057;-67
2022/05/22 03:11:19;;;;;;;1.27;0.10;;;;;;;14.76;53.03;98950.88;1622722;86;21104;-68
2022/05/22 03:13:45;;;;;;;1.75;0.10;;;;;;;14.49;53.35;98945.42;1607779;87;21648;-67
2022/05/22 03:16:13;;;;;;;;;;;;;;;14.27;54.02;98944.05;1617251;87;21721;-67
2022/05/22 03:18:41;;;;;;;0.55;0.10;;;;;;;14.10;54.69;98937.37;1606831;87;20228;-66
2022/05/22 03:21:10;;;;;;;0.35;0.10;;;;;;;13.87;55.27;98937.03;1606436;87;21534;-68
2022/05/22 03:23:37;;;;;;;3.02;0.10;;;;;;;13.73;55.73;98944.55;1605026;88;21553;-68
2022/05/22 03:26:04;;;;;;;0.85;0.05;;;;;;;13.66;56.21;98935.89;1589723;88;21095;-67
2022/05/22 03:28:31;;;;;;;0.33;0.10;;;;;;;13.58;56.71;98929.88;1603811;88;21543;-67
2022/05/22 03:30:57;;;;;;;1.57;0.10;;;;;;;13.52;57.23;98932.70;1597276;88;21102;-68
2022/05/22 03:33:23;;;;;;;;;;;;;;;13.46;57.50;98922.44;1600474;87;21076;-67
2022/05/22 03:35:51;;;;;;;0.28;0.17;;;;;;;13.40;57.89;98925.55;1601921;88;20187;-68
2022/05/22 03:38:18;;;;;;;0.72;0.10;;;;;;;13.28;58.31;98918.09;1600584;88;21535;-67
2022/05/22 03:40:46;;;;;;;1.02;0.30;;;;;;;13.23;58.84;98913.98;1605459;88;21083;-68
2022/05/22 03:43:16;;;;;;;0.90;0.10;;;;;;;13.21;59.12;98910.73;1603723;88;21011;-67
2022/05/22 03:45:44;;;;;;;0.60;0.60;;;;;;;13.16;59.19;98914.12;1616813;87;21098;-66
2022/05/22 03:48:11;;;;;;;1.75;0.10;;;;;;;13.11;59.47;98911.37;1630182;86;20973;-67
2022/05/22 03:50:39;;;;;;;0.57;0.10;;;;;;;13.04;60.07;98904.01;1614711;86;22457;-67
2022/05/22 03:53:06;;;;;;;1.98;0.10;;;;;;;12.99;60.38;98903.91;1669778;83;21021;-67
2022/05/22 03:55:37;;;;;;;2.83;0.10;;;;;;;12.97;60.37;98897.45;1678167;83;21035;-66
2022/05/22 03:58:03;;;;;;;0.72;0.10;;;;;;;12.98;60.68;98899.09;1673007;84;21026;-67
2022/05/22 04:00:30;;;;;;;2.85;0.30;;;;;;;13.01;60.79;98899.94;1683239;83;20982;-67
2022/05/22 04:02:58;;;;;;;3.62;0.10;;;;;;;13.04;60.77;98891.44;1680536;84;21497;-67
2022/05/22 04:05:25;;;;;;;2.17;0.10;;;;;;;13.05;61.15;98893.08;1664818;84;20961;-66
2022/05/22 04:07:51;;;;;;;0.60;0.23;;;;;;;13.10;60.83;98896.89;1657778;84;21049;-66
2022/05/22 04:10:22;;;;;;;2.85;0.62;;;;;;;13.12;61.11;98897.45;1670340;84;21144;-66
2022/05/22 04:12:48;;;;;;;0.82;0.10;;;;;;;13.13;60.94;98895.05;1672680;83;21584;-65
2022/05/22 04:15:19;;;;;;;3.33;0.17;;;;;;;13.14;61.16;98893.48;1675967;84;21694;-65
2022/05/22 04:17:47;;;;;;;1.17;0.10;;;;;;;13.14;61.30;98881.45;1668813;84;21072;-66
2022/05/22 04:20:19;;;;;;;3.17;0.20;;;;;;;13.13;61.51;98887.03;1674232;84;21923;-65
2022/05/22 04:25:33;;;;;;;3.17;0.20;;;;;;;13.11;62.77;98874.42;1672077;84;21129;-66
2022/05/22 04:28:00;;;;;;;1.07;0.10;;;;;;;13.09;63.00;98881.88;1672176;84;21014;-66
2022/05/22 04:30:26;;;;;;;2.08;0.20;;;;;;;13.10;63.09;98884.31;1664841;84;21128;-66
2022/05/22 04:32:54;;;;;;;1.67;0.30;;;;;;;13.14;62.98;98886.80;1672013;84;21597;-66
2022/05/22 04:35:23;;;;;;;1.47;0.20;;;;;;;13.35;62.84;98888.52;1657719;84;21065;-66
2022/05/22 04:37:50;;;;;;;1.20;0.10;;;;;;;13.69;61.67;98881.30;1664006;84;21030;-66
2022/05/22 04:40:16;;;;;;;;;;;;;;;13.91;60.55;98883.25;1672182;84;21050;-66
2022/05/22 04:42:43;;;;;;;4.33;0.40;;;;;;;13.92;60.56;98877.65;1669899;84;20144;-65
2022/05/22 04:45:13;;;;;;;;;;;;;;;13.82;60.24;98871.63;1676529;82;21710;-68
2022/05/22 04:47:57;;;;;;;2.92;0.20;;;;;;;13.77;60.27;98872.87;1665106;84;20114;-66
2022/05/22 04:50:33;;;;;;;1.77;0.23;;;;;;;13.71;60.17;98878.38;1676084;84;21565;-66
2022/05/22 04:53:22;;;;;;;3.40;0.57;;;;;;;13.69;60.33;98867.91;1672303;84;21057;-65
2022/05/22 04:55:51;;;;;;;0.50;0.25;;;;;;;13.61;60.02;98861.64;1667479;83;21032;-67
2022/05/22 04:58:20;;;;;;;2.92;0.20;;;;;;;13.52;60.24;98881.30;1670506;84;21049;-67
2022/05/22 05:00:48;;;;;;;2.87;0.20;;;;;;;13.48;60.39;98874.82;1618130;86;20999;-67
2022/05/22 05:03:16;;;;;;;1.12;0.40;;;;;;;13.47;60.45;98865.19;1667384;84;21135;-67
2022/05/22 05:05:42;;;;;;;1.57;0.20;;;;;;;13.48;60.35;98879.37;1676532;84;21049;-67
2022/05/22 05:08:09;;;;;;;1.72;0.10;;;;;;;13.52;60.25;98868.45;1668070;84;21663;-66
2022/05/22 05:10:52;;;;;;;1.57;0.20;;;;;;;13.61;60.12;98869.14;1678801;84;21089;-66
2022/05/22 05:13:25;;;;;;;2.45;0.33;;;;;;;13.73;59.98;98876.27;1675024;84;21153;-66
2022/05/22 05:16:04;;;;;;;0.90;0.13;;;;;;;13.91;59.19;98852.45;1674276;85;21038;-66
2022/05/22 05:18:39;;;;;;;2.55;0.10;;;;;;;14.06;57.96;98851.31;1665126;84;21585;-66
2022/05/22 05:21:12;;;;;;;3.65;0.70;;;;;;;14.29;57.54;98857.50;1670429;84;21030;-67
2022/05/22 05:23:40;;;;;;;1.47;0.40;;;;;;;14.22;56.37;98802.73;1680691;83;21066;-67
2022/05/22 05:26:09;;;;;;;0.80;0.10;;;;;;;14.75;55.43;98855.41;1681555;83;21515;-66
2022/05/22 05:28:36;;;;;;;2.20;0.30;;;;;;;14.80;54.39;98854.09;1684488;84;21506;-66
2022/05/22 05:31:03;;;;;;;1.75;0.10;;;;;;;14.81;54.92;98840.98;1680329;83;21090;-67
2022/05/22 05:33:33;;;;;;;1.80;0.10;;;;;;;14.93;53.98;98845.64;1684798;83;21027;-67
2022/05/22 05:36:10;;;;;;;1.25;0.30;;;;;;;15.17;53.41;98852.05;1669446;84;21563;-67
2022/05/22 05:38:57;;;;;;;1.27;0.10;;;;;;;15.41;52.52;98838.28;1659287;84;21024;-66
2022/05/22 05:41:41;;;;;;;0.10;0.00;;;;;;;15.67;51.65;98841.96;1657093;86;21108;-67
2022/05/22 05:44:09;;;;;;;5.00;0.10;;;;;;;15.70;50.54;98838.23;1670839;84;21126;-66
2022/05/22 05:46:39;;;;;;;1.55;0.20;;;;;;;15.71;49.48;98833.69;1664283;84;21119;-67
2022/05/22 05:49:08;;;;;;;0.20;0.10;;;;;;;15.69;49.83;98832.59;1666016;84;20996;-66
2022/05/22 05:51:39;;;;;;;2.02;0.10;;;;;;;15.69;49.55;98837.14;1671056;84;21594;-66
2022/05/22 05:54:05;;;;;;;2.92;0.10;;;;;;;15.76;49.37;98833.22;1670776;84;21031;-67
2022/05/22 05:56:50;;;;;;;5.35;0.17;;;;;;;15.74;49.58;98837.21;1690519;82;21006;-66
2022/05/22 05:59:18;;;;;;;1.40;0.62;;;;;;;15.62;49.99;98846.78;1698034;82;21117;-66
2022/05/22 06:01:46;;;;;;;0.72;0.10;;;;;;;15.43;50.47;98832.95;1704349;82;21487;-66
2022/05/22 06:04:14;;;;;;;0.42;0.00;;;;;;;15.26;50.63;98847.84;1699888;82;20991;-67
2022/05/22 06:06:42;;;;;;;3.12;0.10;;;;;;;15.09;51.04;98844.47;1703718;82;21597;-66
2022/05/22 06:09:08;;;;;;;4.37;0.10;;;;;;;14.95;51.64;98847.54;1698923;82;21039;-67
2022/05/22 06:11:39;;;;;;;2.37;0.20;;;;;;;14.86;52.40;98849.09;1701762;82;21106;-66
2022/05/22 06:14:16;;;;;;;0.47;0.30;;;;;;;14.62;52.78;98811.52;1695561;84;21098;-66
2022/05/22 06:16:43;;;;;;;2.17;0.10;;;;;;;14.74;53.00;98846.53;1697338;82;21114;-66
2022/05/22 06:19:11;;;;;;;3.65;0.55;;;;;;;14.71;53.12;98857.78;1702393;82;21549;-67
2022/05/22 06:21:44;;;;;;;3.55;0.20;;;;;;;14.66;53.34;98840.82;1698673;82;21062;-67
2022/05/22 06:24:12;;;;;;;1.45;0.00;;;;;;;14.62;52.99;98851.23;1697137;82;21077;-66
2022/05/22 06:26:57;;;;;;;0.78;0.10;;;;;;;14.58;53.60;98839.40;1694793;82;21053;-66
2022/05/22 06:29:29;;;;;;;5.33;0.10;;;;;;;14.57;53.23;98843.13;1697789;82;21094;-66
2022/05/22 06:31:57;;;;;;;0.10;0.03;;;;;;;14.58;53.42;98850.92;1690528;82;21058;-67
2022/05/22 06:34:41;;;;;;;2.00;0.10;;;;;;;14.59;53.60;98849.84;1695664;82;21533;-67
2022/05/22 06:37:14;;;;;;;0.80;0.15;;;;;;;14.56;54.00;98850.84;1693425;82;22411;-66
2022/05/22 06:39:53;;;;;;;0.98;0.10;;;;;;;14.51;54.20;98848.13;1695099;82;21125;-66
2022/05/22 06:42:43;;;;;;;1.85;0.10;;;;;;;14.43;54.78;98852.06;1693842;82;21373;-67
2022/05/22 06:45:22;;;;;;;0.95;0.10;;;;;;;14.27;55.63;98844.88;1701233;82;20998;-67
2022/05/22 06:48:07;;;;;;;1.85;0.10;;;;;;;14.19;55.71;98836.75;1713463;82;21038;-66
2022/05/22 06:50:52;;;;;;;3.40;0.10;;;;;;;14.10;55.87;98849.75;1697744;82;21896;-67
2022/05/22 06:53:27;;;;;;;5.58;0.35;;;;;;;14.02;55.94;98840.81;1690559;82;21075;-68
2022/05/22 06:56:12;;;;;;;0.35;0.05;;;;;;;14.00;56.03;98845.61;1690680;82;21537;-67
2022/05/22 06:58:46;;;;;;;3.42;0.10;;;;;;;13.89;56.31;98837.16;1686978;82;22184;-65
2022/05/22 07:01:26;;;;;;;1.17;0.10;;;;;;;13.86;56.55;98843.80;1704998;82;21616;-66
2022/05/22 07:03:53;;;;;;;1.32;0.10;;;;;;;13.79;56.66;98834.61;1706270;82;21474;-67
2022/05/22 07:06:28;;;;;;;1.42;0.35;;;;;;;13.80;56.89;98848.27;1667895;82;21026;-67
2022/05/22 07:08:56;;;;;;;3.95;0.10;;;;;;;13.83;56.83;98845.11;1669093;82;21562;-66
2022/05/22 07:11:39;;;;;;;2.00;0.10;;;;;;;13.81;57.30;98849.91;1694116;82;21037;-65
2022/05/22 07:14:22;;;;;;;0.10;0.10;;;;;;;13.75;58.16;98843.36;1695166;82;21094;-66
2022/05/22 07:16:56;;;;;;;11.22;0.53;;;;;;;13.67;58.48;98859.32;1668353;82;22136;-67
2022/05/22 07:19:24;;;;;;;1.57;0.30;;;;;;;13.66;58.64;98854.23;1693287;82;21010;-67
2022/05/22 07:21:55;;;;;;;0.40;0.10;;;;;;;13.65;58.57;98854.73;1699468;82;21410;-67
2022/05/22 07:24:40;;;;;;;3.12;0.08;;;;;;;13.61;58.07;98828.98;1701362;82;21110;-67
2022/05/22 07:27:25;;;;;;;2.33;0.10;;;;;;;13.62;58.00;98848.02;1703739;82;21223;-67
2022/05/22 07:29:56;;;;;;;1.17;0.10;;;;;;;13.62;58.38;98845.34;1707337;82;21121;-66
2022/05/22 07:32:27;;;;;;;0.20;0.10;;;;;;;13.67;58.90;98849.95;1704120;82;21082;-67
2022/05/22 07:35:13;;;;;;;0.95;0.10;;;;;;;13.78;58.96;98839.67;1697882;82;21514;-67
2022/05/22 07:37:50;;;;;;;0.15;0.10;;;;;;;13.90;58.16;98846.80;1704500;82;21038;-67
2022/05/22 07:40:34;;;;;;;0.62;0.10;;;;;;;13.94;57.82;98855.98;1702017;82;21058;-67
2022/05/22 07:43:18;;;;;;;0.00;0.00;;;;;;;13.91;57.80;98857.27;1676224;83;21715;-66
2022/05/22 07:45:49;;;;;;;1.17;0.10;;;;;;;13.83;57.68;98853.68;1689997;82;21567;-68
2022/05/22 07:48:26;;;;;;;1.50;0.10;;;;;;;13.75;58.16;98848.21;1699905;82;21082;-72
2022/05/22 07:50:57;;;;;;;2.35;0.10;;;;;;;13.68;58.17;98850.24;1692756;82;21141;-68
2022/05/22 07:53:41;;;;;;;2.15;0.10;;;;;;;13.67;58.76;98852.63;1655937;85;20987;-68
2022/05/22 07:56:26;;;;;;;0.98;0.40;;;;;;;13.65;59.18;98849.38;1686495;82;21157;-68
2022/05/22 07:59:00;;;;;;;0.50;0.20;;;;;;;13.62;59.69;98847.22;1696513;82;21062;-68
2022/05/22 08:01:32;;;;;;;0.10;0.10;;;;;;;13.60;59.88;98850.67;1702797;82;21479;-69
2022/05/22 08:04:05;;;;;;;0.78;0.10;;;;;;;13.61;59.49;98858.97;1694216;82;21495;-67
2022/05/22 08:06:50;;;;;;;0.67;0.00;;;;;;;13.66;59.75;98855.57;1703488;82;21050;-69
2022/05/22 08:09:21;;;;;;;1.15;0.30;;;;;;;13.76;59.94;98849.81;1701375;82;21006;-69
2022/05/22 08:11:49;;;;;;;1.02;0.10;;;;;;;13.82;59.66;98848.86;1694311;82;21089;-68
2022/05/22 08:14:17;;;;;;;2.67;0.30;;;;;;;13.90;59.51;98867.71;1699830;82;21578;-70
2022/05/22 08:16:44;;;;;;;0.60;0.10;;;;;;;13.95;59.11;98844.19;1698896;82;21030;-69
2022/05/22 08:19:12;;;;;;;0.33;0.10;;;;;;;14.01;58.59;98846.70;1700874;82;21042;-69
2022/05/22 08:21:40;;;;;;;0.62;0.20;;;;;;;14.12;57.63;98844.16;1693931;84;21086;-69
2022/05/22 08:24:09;;;;;;;1.02;0.10;;;;;;;14.18;57.18;98856.05;1696613;82;21105;-68
2022/05/22 08:26:38;;;;;;;4.12;0.20;;;;;;;14.31;57.37;98841.44;1702959;82;21121;-70
2022/05/22 08:29:04;;;;;;;;;;;;;;;14.49;57.01;98855.61;1700759;82;21209;-68
2022/05/22 08:31:32;;;;;;;0.95;0.10;;;;;;;14.58;56.32;98841.54;1704954;82;20486;-70
2022/05/22 08:33:58;;;;;;;;;;;;;;;14.56;56.31;98850.34;1702010;82;21030;-70
2022/05/22 08:36:25;;;;;;;0.20;0.20;;;;;;;14.57;56.27;98851.17;1701696;82;20181;-71
2022/05/22 08:38:52;;;;;;;0.60;0.37;;;;;;;14.59;56.62;98853.06;1705636;82;21069;-71
2022/05/22 08:41:31;;;;;;;0.13;0.10;;;;;;;14.66;56.26;98847.52;1697176;82;21608;-70
2022/05/22 08:44:21;;;;;;;0.35;0.28;;;;;;;14.58;56.26;98840.20;1696575;82;21169;-76
2022/05/22 08:47:07;;;;;;;0.95;0.10;;;;;;;14.51;56.45;98858.31;1700729;82;21069;-71
2022/05/22 08:49:47;;;;;;;0.20;0.20;;;;;;;14.49;57.06;98851.05;1688334;82;21022;-70
2022/05/22 08:52:40;;;;;;;0.78;0.10;;;;;;;14.43;58.59;98856.59;1708993;82;21069;-77
2022/05/22 08:55:17;;;;;;;0.40;0.10;;;;;;;14.45;58.26;98847.77;1706386;82;21077;-74
2022/05/22 09:01:09;;;;;;;1.37;0.47;;;;;;;14.43;56.65;98853.40;1697755;82;21077;-72
2022/05/22 09:04:07;;;;;;;0.98;0.00;;;;;;;14.31;57.13;98853.50;1699552;82;21015;-72
2022/05/22 09:07:00;;;;;;;0.10;0.00;;;;;;;14.26;56.85;98852.63;1699595;82;21589;-70
2022/05/22 09:09:29;;;;;;;0.10;0.00;;;;;;;14.15;57.48;98866.44;1704913;82;21597;-72
2022/05/22 09:12:19;;;;;;;2.20;0.10;;;;;;;14.13;58.60;98861.86;1707963;82;21038;-73
2022/05/22 09:15:20;;;;;;;0.10;0.00;;;;;;;14.06;58.32;98861.23;1688415;82;21037;-75
2022/05/22 09:18:09;;;;;;;0.10;0.10;;;;;;;13.98;58.28;98858.45;1702180;82;21105;-72
2022/05/22 09:21:00;;;;;;;0.10;0.00;;;;;;;13.94;58.05;98855.98;1704024;82;20993;-74
2022/05/22 09:23:35;;;;;;;0.15;0.00;;;;;;;13.89;57.76;98859.38;1703768;82;21037;-70
2022/05/22 09:26:13;;;;;;;0.78;0.20;;;;;;;13.80;58.12;98872.37;1709210;82;21039;-72
2022/05/22 09:29:03;;;;;;;0.35;0.20;;;;;;;13.48;58.91;98820.48;1696586;82;21022;-71
2022/05/22 09:31:57;;;;;;;1.98;0.10;;;;;;;13.76;59.09;98836.42;1700733;82;21112;-72
2022/05/22 09:34:58;;;;;;;0.20;0.00;;;;;;;13.74;60.09;98865.32;1700992;82;21033;-71
2022/05/22 09:37:51;;;;;;;0.23;0.00;;;;;;;13.61;62.15;98869.67;1669418;82;21110;-73
2022/05/22 09:40:47;;;;;;;0.20;0.10;;;;;;;13.47;63.28;98869.20;1699273;82;21018;-71
2022/05/22 09:43:47;;;;;;;1.95;0.20;;;;;;;13.39;62.95;98881.63;1649790;85;21077;-74
2022/05/22 09:46:31;;;;;;;2.05;0.10;;;;;;;13.38;62.61;98884.03;1699420;82;21469;-69
2022/05/22 09:49:30;;;;;;;0.20;0.20;;;;;;;13.36;61.54;98890.16;1696763;82;21039;-73
2022/05/22 09:52:12;;;;;;;0.70;0.10;;;;;;;13.34;61.57;98882.36;1701507;82;21066;-73
2022/05/22 09:55:16;;;;;;;1.32;0.10;;;;;;;13.29;62.09;98896.95;1706530;82;21364;-73
2022/05/22 09:58:09;;;;;;;3.58;0.20;;;;;;;13.25;62.41;98900.64;1703622;82;21573;-72
2022/05/22 10:00:53;;;;;;;0.40;0.10;;;;;;;13.29;62.53;98898.30;1701341;82;21127;-76
2022/05/22 10:03:49;;;;;;;0.50;0.10;;;;;;;13.36;62.16;98903.53;1675940;84;21048;-73
2022/05/22 10:06:42;;;;;;;0.40;0.10;;;;;;;13.40;62.08;98898.78;1670637;84;21005;-74
2022/05/22 10:09:37;;;;;;;0.75;0.35;;;;;;;13.42;62.21;98897.20;1697572;82;21129;-73
2022/05/22 10:12:15;;;;;;;1.05;0.10;;;;;;;13.39;62.81;98905.20;1704409;82;21056;-73
2022/05/22 10:15:02;;;;;;;1.35;0.10;;;;;;;13.35;62.58;98900.03;1706214;82;21064;-73
2022/05/22 10:17:41;;;;;;;1.05;0.10;;;;;;;13.31;63.04;98908.26;1696147;82;21582;-72
2022/05/22 10:20:43;;;;;;;0.40;0.10;;;;;;;13.31;63.68;98913.61;1709248;82;21015;-73
2022/05/22 10:23:42;;;;;;;0.30;0.10;;;;;;;13.37;63.12;98911.83;1693923;82;21544;-76
2022/05/22 10:26:47;;;;;;;0.95;0.10;;;;;;;13.27;63.41;98903.08;1693028;82;21015;-71
2022/05/22 10:29:31;;;;;;;2.15;0.10;;;;;;;13.25;63.64;98922.58;1697684;82;21069;-73
2022/05/22 10:32:06;;;;;;;0.28;0.10;;;;;;;13.29;64.26;98931.74;1670422;82;21064;-71
2022/05/22 10:34:40;;;;;;;0.20;0.10;;;;;;;13.30;64.78;98921.37;1692891;82;21062;-73
2022/05/22 10:37:27;;;;;;;0.70;0.20;;;;;;;13.24;66.39;98927.13;1705199;82;21548;-72
2022/05/22 10:39:57;;;;;;;2.08;0.10;;;;;;;13.18;66.62;98930.73;1694667;82;21080;-72
2022/05/22 10:42:51;;;;;;;3.95;0.50;;;;;;;13.06;68.09;98932.66;1708412;82;21041;-76
2022/05/22 10:45:11;;;;;;;0.60;0.10;;;;;;;12.93;68.62;98931.08;1701067;82;21010;-75
2022/05/22 10:47:37;;;;;;;1.52;0.17;;;;;;;12.82;69.17;98929.26;1695366;82;21038;-73
2022/05/22 10:50:18;;;;;;;1.17;0.60;;;;;;;12.68;69.57;98940.76;1707462;82;21008;-73
2022/05/22 10:52:45;;;;;;;0.60;0.17;;;;;;;12.63;71.26;98952.14;1703221;82;21133;-78
2022/05/22 10:55:36;;;;;;;0.30;0.20;;;;;;;12.61;71.00;98929.38;1703454;82;21067;-73
2022/05/22 10:58:08;;;;;;;0.42;0.25;;;;;;;12.57;72.03;98943.73;1686285;82;21696;-71
2022/05/22 11:00:34;;;;;;;0.40;0.25;;;;;;;12.50;72.71;98948.39;1699140;82;21059;-73
2022/05/22 11:03:12;;;;;;;0.70;0.20;;;;;;;12.44;74.25;98939.98;1693029;82;21570;-71
2022/05/22 11:05:39;;;;;;;0.53;0.25;;;;;;;12.40;73.80;98943.64;1701348;82;21034;-72
2022/05/22 11:08:06;;;;;;;0.40;0.13;;;;;;;12.38;73.89;98940.39;1702883;82;21058;-80
2022/05/22 11:10:39;;;;;;;1.95;0.20;;;;;;;12.41;74.41;98955.13;1691709;82;21570;-74
2022/05/22 11:13:10;;;;;;;2.30;0.25;;;;;;;12.40;74.53;98953.52;1704288;82;20990;-69
2022/05/22 11:15:43;;;;;;;2.45;0.65;;;;;;;12.39;73.96;98948.69;1700217;80;21402;-71
2022/05/22 11:18:14;;;;;;;0.50;0.10;;;;;;;12.42;74.01;98947.42;1704867;82;21035;-71
2022/05/22 11:20:54;;;;;;;0.47;0.23;;;;;;;12.44;73.91;98958.69;1698417;82;21054;-73
2022/05/22 11:23:45;;;;;;;0.42;0.42;;;;;;;12.45;73.45;98959.80;1700979;84;21046;-69
2022/05/22 11:26:54;;;;;;;1.35;0.30;;;;;;;12.44;72.82;98958.16;1698017;82;21066;-70
2022/05/22 11:29:40;;;;;;;0.42;0.20;;;;;;;12.41;73.02;98957.30;1696263;82;21498;-70
2022/05/22 11:32:21;;;;;;;0.68;0.30;;;;;;;12.41;73.39;98959.14;1694853;82;20987;-69
2022/05/22 11:35:08;;;;;;;0.37;0.10;;;;;;;12.44;73.89;98972.05;1693690;82;21033;-71
2022/05/22 11:37:47;;;;;;;1.85;0.53;;;;;;;12.47;74.45;98971.59;1696739;82;21073;-70
2022/05/22 11:41:00;;;;;;;1.45;0.20;;;;;;;12.47;74.27;98964.91;1695186;82;21046;-69
2022/05/22 11:43:58;;;;;;;1.60;0.40;;;;;;;12.46;73.90;98969.95;1705668;82;21261;-71
2022/05/22 11:46:53;;;;;;;1.25;0.53;;;;;;;12.43;74.62;98973.08;1692059;82;21006;-72
2022/05/22 11:49:38;;;;;;;1.02;0.40;;;;;;;12.41;74.97;98953.80;1701571;82;21538;-70
2022/05/22 11:52:53;;;;;;;0.40;0.30;;;;;;;12.37;74.73;98978.03;1697355;82;21480;-69
2022/05/22 11:54:54;;;;;;;0.30;0.20;;;;;;;12.37;74.89;98977.50;1694584;82;21187;-69
2022/05/22 11:57:56;;;;;;;0.53;0.10;;;;;;;12.38;74.55;98979.67;1696935;82;21575;-78
2022/05/22 12:00:30;;;;;;;1.92;0.47;;;;;;;12.39;74.65;98974.59;1694260;82;21100;-70
2022/05/22 12:03:23;;;;;;;2.37;0.30;;;;;;;12.41;75.24;98969.83;1696208;82;21106;-70
2022/05/22 12:07:52;;;;;;;1.65;0.55;;;;;;;12.42;75.56;98980.83;1805227;78;23470;-70
2022/05/22 12:10:32;;;;;;;0.85;0.30;;;;;;;12.31;75.53;98987.79;1776452;80;21048;-76
2022/05/22 12:13:33;;;;;;;1.02;0.30;;;;;;;12.23;75.90;98975.59;1759026;80;20973;-69
2022/05/22 12:16:20;;;;;;;3.80;0.30;;;;;;;12.24;76.10;98985.25;1752150;80;21027;-71
2022/05/22 12:19:05;;;;;;;0.57;0.20;;;;;;;12.31;76.30;98992.33;1751443;80;22204;-71
2022/05/22 12:21:52;;;;;;;0.80;0.23;;;;;;;12.38;75.95;98979.67;1753296;80;21043;-70
2022/05/22 12:24:50;;;;;;;0.50;0.20;;;;;;;12.42;76.06;98994.19;1751264;80;20974;-71
2022/05/22 12:27:34;;;;;;;2.37;0.72;;;;;;;12.47;75.71;98994.31;1751121;81;20971;-71